Time;durP1;ratioP1;P1;durP2;ratioP2;P2;SDS_P1;SDS_P2;PMS_P1;PMS_P2;Temp;Humidity;BMP_temperature;BMP_pressure;BME280_temperature;BME280_humidity;BME280_pressure;Samples;Min_cycle;Max_cycle;Signal;HPM_P1;HPM_P2
2022/07/20 06:32:48;;;;;;;11.10;7.55;;;;;;;;;;12884736;23;20004;-86
2022/07/20 06:44:01;;;;;;;16.88;8.65;;;;;;;;;;12882302;23;20012;-86
2022/07/20 07:00:33;;;;;;;14.43;11.30;;;;;;;;;;12902454;23;20437;-87
2022/07/20 07:05:34;;;;;;;16.73;12.23;;;;;;;;;;12882761;23;20001;-84
2022/07/20 07:10:48;;;;;;;16.08;12.10;;;;;;;;;;12864748;23;20011;-83
2022/07/20 07:15:56;;;;;;;18.10;13.10;;;;;;;;;;12855379;23;20028;-83
2022/07/20 07:26:33;;;;;;;20.85;16.90;;;;;;;;;;12880225;23;20016;-82
2022/07/20 07:31:40;;;;;;;19.90;15.02;;;;;;;;;;12854013;23;20032;-82
2022/07/20 07:36:41;;;;;;;20.40;16.00;;;;;;;;;;12850952;23;20004;-82
2022/07/20 07:41:42;;;;;;;18.35;16.38;;;;;;;;;;12877602;23;20019;-82
2022/07/20 07:46:49;;;;;;;22.50;17.98;;;;;;;;;;12850112;23;20004;-82
2022/07/20 07:51:54;;;;;;;20.15;17.25;;;;;;;;;;12852293;23;20452;-82
2022/07/20 07:56:55;;;;;;;23.23;18.05;;;;;;;;;;12861642;23;20003;-83
2022/07/20 08:02:12;;;;;;;22.15;18.17;;;;;;;;;;12885984;23;20005;-82
2022/07/20 08:07:15;;;;;;;23.02;18.90;;;;;;;;;;12856261;23;20012;-82
2022/07/20 08:12:20;;;;;;;21.15;18.98;;;;;;;;;;12854904;23;20436;-82
2022/07/20 08:17:22;;;;;;;21.17;18.73;;;;;;;;;;12828448;23;20128;-82
2022/07/20 08:22:24;;;;;;;21.75;19.23;;;;;;;;;;12884209;23;20039;-82
2022/07/20 08:27:25;;;;;;;22.35;20.15;;;;;;;;;;12854111;23;20012;-81
2022/07/20 08:32:27;;;;;;;22.50;19.80;;;;;;;;;;12858876;23;20024;-82
2022/07/20 08:37:29;;;;;;;21.63;19.23;;;;;;;;;;12888850;23;20024;-82
2022/07/20 08:42:30;;;;;;;22.25;20.00;;;;;;;;;;12862708;23;20004;-83
2022/07/20 08:47:32;;;;;;;22.17;19.98;;;;;;;;;;12863108;23;20009;-82
2022/07/20 08:52:34;;;;;;;21.13;19.02;;;;;;;;;;12859288;23;20039;-82
2022/07/20 08:57:36;;;;;;;21.27;19.08;;;;;;;;;;12892699;23;20008;-82
2022/07/20 09:02:50;;;;;;;22.90;19.73;;;;;;;;;;12888995;22;20000;-82
2022/07/20 09:07:52;;;;;;;24.85;20.13;;;;;;;;;;12875882;23;20072;-82
2022/07/20 09:12:59;;;;;;;21.85;19.77;;;;;;;;;;12863123;23;20005;-83
2022/07/20 09:18:03;;;;;;;21.50;19.33;;;;;;;;;;12864256;23;20009;-82
2022/07/20 09:23:09;;;;;;;21.63;18.95;;;;;;;;;;12859402;23;20016;-81
2022/07/20 09:28:10;;;;;;;20.77;18.55;;;;;;;;;;12863800;23;20001;-80
2022/07/20 09:33:11;;;;;;;21.25;19.08;;;;;;;;;;12866434;23;20007;-83
2022/07/20 09:38:14;;;;;;;21.48;19.25;;;;;;;;;;12865144;23;20068;-83
2022/07/20 09:43:26;;;;;;;21.58;19.42;;;;;;;;;;12870905;23;20028;-83
2022/07/20 09:48:30;;;;;;;21.35;19.25;;;;;;;;;;12865788;23;20009;-83
2022/07/20 09:53:31;;;;;;;21.25;19.10;;;;;;;;;;12866330;23;20004;-83
2022/07/20 09:58:34;;;;;;;21.85;18.13;;;;;;;;;;12867399;23;20005;-83
2022/07/20 10:03:35;;;;;;;21.05;18.88;;;;;;;;;;12867802;23;20080;-82
2022/07/20 10:08:36;;;;;;;19.20;17.33;;;;;;;;;;12870447;23;20016;-82
2022/07/20 10:13:39;;;;;;;17.67;15.75;;;;;;;;;;12864823;23;20001;-82
2022/07/20 10:18:45;;;;;;;19.48;16.33;;;;;;;;;;12855331;23;20028;-81
2022/07/20 10:24:06;;;;;;;16.88;15.10;;;;;;;;;;12866565;23;20063;-82
2022/07/20 10:29:17;;;;;;;16.73;15.02;;;;;;;;;;12866758;23;20015;-81
2022/07/20 10:34:33;;;;;;;15.95;14.35;;;;;;;;;;12879483;22;20020;-83
2022/07/20 10:39:52;;;;;;;15.27;13.82;;;;;;;;;;12880385;22;20020;-83
2022/07/20 10:45:13;;;;;;;17.83;13.57;;;;;;;;;;12865928;23;20008;-82
2022/07/20 10:50:19;;;;;;;15.98;12.55;;;;;;;;;;12858573;23;20099;-82
2022/07/20 10:55:45;;;;;;;16.05;12.30;;;;;;;;;;12885505;23;20005;-82
2022/07/20 11:06:26;;;;;;;13.73;11.98;;;;;;;;;;12885134;23;20012;-79
2022/07/20 11:11:41;;;;;;;14.57;11.40;;;;;;;;;;12872562;23;20066;-81
2022/07/20 11:16:57;;;;;;;14.68;11.57;;;;;;;;;;12906795;23;20004;-82
2022/07/20 11:22:53;;;;;;;13.00;11.65;;;;;;;;;;12877583;23;20017;-82
2022/07/20 11:27:30;;;;;;;13.70;12.30;;;;;;;;;;12919396;22;20020;-83
2022/07/20 11:32:33;;;;;;;14.10;11.50;;;;;;;;;;12918301;23;20050;-81
2022/07/20 11:37:55;;;;;;;13.40;11.68;;;;;;;;;;12874865;23;20004;-83
2022/07/20 11:43:15;;;;;;;11.88;10.25;;;;;;;;;;12908545;23;20012;-82
2022/07/20 11:48:24;;;;;;;12.70;10.38;;;;;;;;;;12913485;23;20325;-81
2022/07/20 11:53:35;;;;;;;16.85;10.35;;;;;;;;;;12942905;23;19996;-81
2022/07/20 11:58:37;;;;;;;11.77;10.57;;;;;;;;;;12919557;23;20004;-82
2022/07/20 12:03:45;;;;;;;11.40;10.27;;;;;;;;;;12913247;23;20054;-82
2022/07/20 12:09:05;;;;;;;12.02;10.75;;;;;;;;;;12920451;23;20000;-84
2022/07/20 12:14:09;;;;;;;13.38;10.68;;;;;;;;;;12919874;23;20437;-82
2022/07/20 12:19:14;;;;;;;11.45;10.00;;;;;;;;;;12921746;23;20008;-82
2022/07/20 12:24:18;;;;;;;11.35;10.40;;;;;;;;;;12922761;23;20012;-82
2022/07/20 12:29:24;;;;;;;11.57;10.45;;;;;;;;;;12916715;23;20008;-83
2022/07/20 12:34:25;;;;;;;12.57;11.38;;;;;;;;;;12917049;23;19996;-81
2022/07/20 12:39:37;;;;;;;14.88;10.73;;;;;;;;;;12942471;23;20010;-82
2022/07/20 12:44:46;;;;;;;13.50;9.30;;;;;;;;;;12915571;23;20011;-82
2022/07/20 12:49:49;;;;;;;10.70;9.57;;;;;;;;;;12915603;23;20060;-81
2022/07/20 13:23:17;;;;;;;10.57;9.52;;;;;;;;;;12935098;23;20076;-79
2022/07/20 13:28:18;;;;;;;9.85;8.90;;;;;;;;;;12832163;23;20432;-80
2022/07/20 13:33:20;;;;;;;9.93;8.88;;;;;;;;;;12826333;23;20043;-80
2022/07/20 13:38:21;;;;;;;10.18;9.00;;;;;;;;;;12793114;23;20397;-81
2022/07/20 13:43:23;;;;;;;10.73;8.95;;;;;;;;;;12791803;23;20032;-81
2022/07/20 13:48:24;;;;;;;9.82;8.85;;;;;;;;;;12792363;23;20088;-81
2022/07/20 13:53:25;;;;;;;9.20;7.30;;;;;;;;;;12794577;23;20009;-80
2022/07/20 13:58:26;;;;;;;8.63;7.80;;;;;;;;;;12796819;23;20341;-80
2022/07/20 14:03:30;;;;;;;8.18;7.38;;;;;;;;;;12807544;23;20073;-82
2022/07/20 14:08:31;;;;;;;9.05;7.63;;;;;;;;;;12805871;23;20009;-83
2022/07/20 14:13:32;;;;;;;9.63;7.57;;;;;;;;;;12789272;23;20005;-84
2022/07/20 14:18:33;;;;;;;8.15;7.30;;;;;;;;;;12783595;23;20060;-81
2022/07/20 14:23:34;;;;;;;13.65;7.30;;;;;;;;;;12809975;23;20013;-80
2022/07/20 14:28:35;;;;;;;8.45;7.60;;;;;;;;;;12849735;23;20032;-80
2022/07/20 14:33:37;;;;;;;8.05;7.10;;;;;;;;;;12850599;23;20013;-80
2022/07/20 14:38:38;;;;;;;8.52;7.55;;;;;;;;;;12884939;23;20001;-79
2022/07/20 14:43:39;;;;;;;9.52;7.55;;;;;;;;;;12855191;23;20428;-79
2022/07/20 14:48:41;;;;;;;8.75;7.22;;;;;;;;;;12852514;23;20060;-79
2022/07/20 14:53:43;;;;;;;8.35;7.50;;;;;;;;;;12853469;23;20009;-79
2022/07/20 14:58:44;;;;;;;9.32;7.30;;;;;;;;;;12851952;23;20008;-81
2022/07/20 15:03:45;;;;;;;7.15;6.53;;;;;;;;;;12853172;23;20023;-79
2022/07/20 15:08:47;;;;;;;10.02;7.35;;;;;;;;;;12854186;23;20008;-81
2022/07/20 15:13:48;;;;;;;11.00;7.88;;;;;;;;;;12853747;23;20009;-81
2022/07/20 15:18:49;;;;;;;8.45;7.20;;;;;;;;;;12884620;23;20000;-80
2022/07/20 15:23:50;;;;;;;9.32;7.57;;;;;;;;;;12856817;23;20031;-81
2022/07/20 15:28:51;;;;;;;11.35;7.10;;;;;;;;;;12856967;23;20078;-80
2022/07/20 15:33:53;;;;;;;10.88;8.07;;;;;;;;;;12857336;23;20020;-81
2022/07/20 15:38:58;;;;;;;7.38;6.65;;;;;;;;;;12865956;23;20013;-80
2022/07/20 15:43:59;;;;;;;12.38;10.10;;;;;;;;;;12872190;23;20081;-78
2022/07/20 15:49:01;;;;;;;11.45;8.43;;;;;;;;;;12881339;23;20004;-81
2022/07/20 15:54:03;;;;;;;10.70;7.90;;;;;;;;;;12853690;23;20016;-81
2022/07/20 15:59:27;;;;;;;11.23;8.13;;;;;;;;;;12855283;23;20013;-81
2022/07/20 16:04:46;;;;;;;;;;;;;;;;;;12886872;23;20024;-83
2022/07/20 16:09:47;;;;;;;10.60;8.50;;;;;;;;;;12884219;23;19900;-84
2022/07/20 16:14:48;;;;;;;8.05;7.07;;;;;;;;;;12874959;23;20001;-84
2022/07/20 16:19:49;;;;;;;10.75;6.80;;;;;;;;;;12879385;23;20054;-83
2022/07/20 16:24:50;;;;;;;9.50;6.97;;;;;;;;;;12843826;23;20075;-83
2022/07/20 16:29:52;;;;;;;14.95;8.85;;;;;;;;;;12844339;23;20043;-83
2022/07/20 16:34:56;;;;;;;9.43;7.53;;;;;;;;;;12870679;23;20049;-84
2022/07/20 16:39:57;;;;;;;8.52;7.05;;;;;;;;;;12845080;23;20425;-84
2022/07/20 16:44:58;;;;;;;9.57;7.90;;;;;;;;;;12844470;23;20009;-83
2022/07/20 16:49:59;;;;;;;7.97;7.18;;;;;;;;;;12845252;23;20032;-84
2022/07/20 16:55:02;;;;;;;8.43;7.43;;;;;;;;;;12845693;23;20442;-84
2022/07/20 17:00:08;;;;;;;8.15;7.28;;;;;;;;;;12845846;23;20008;-83
2022/07/20 17:05:11;;;;;;;9.50;7.40;;;;;;;;;;12844563;23;20008;-83
2022/07/20 17:10:12;;;;;;;7.63;6.88;;;;;;;;;;12872428;23;20077;-84
2022/07/20 17:15:14;;;;;;;7.63;6.93;;;;;;;;;;12848482;23;20031;-84
2022/07/20 17:20:17;;;;;;;7.82;6.95;;;;;;;;;;12847684;23;20012;-84
2022/07/20 17:25:18;;;;;;;9.13;8.07;;;;;;;;;;12845694;23;20028;-83
2022/07/20 17:30:19;;;;;;;7.20;6.50;;;;;;;;;;12845320;23;20008;-84
2022/07/20 17:35:21;;;;;;;7.80;7.00;;;;;;;;;;12844291;23;20087;-83
2022/07/20 17:40:22;;;;;;;7.32;6.63;;;;;;;;;;12844255;23;20087;-83
2022/07/20 17:45:23;;;;;;;9.00;7.60;;;;;;;;;;12844938;23;20380;-83
2022/07/20 17:50:24;;;;;;;7.97;7.20;;;;;;;;;;12844201;23;20024;-83
2022/07/20 17:55:27;;;;;;;7.45;6.75;;;;;;;;;;12843140;23;20067;-84
2022/07/20 18:00:29;;;;;;;8.70;7.82;;;;;;;;;;12842204;23;20005;-84
2022/07/20 18:05:30;;;;;;;8.13;7.35;;;;;;;;;;12842863;23;20012;-83
2022/07/20 18:10:31;;;;;;;8.18;7.40;;;;;;;;;;12869960;23;20059;-84
2022/07/20 18:15:32;;;;;;;7.45;6.65;;;;;;;;;;12843204;23;20005;-84
2022/07/20 18:20:33;;;;;;;6.40;5.80;;;;;;;;;;12843531;23;20009;-84
2022/07/20 18:25:34;;;;;;;7.40;6.50;;;;;;;;;;12842672;23;20019;-84
2022/07/20 18:30:36;;;;;;;8.43;7.20;;;;;;;;;;12843052;23;20008;-83
2022/07/20 18:35:37;;;;;;;7.32;6.63;;;;;;;;;;12841155;23;20005;-83
2022/07/20 18:40:39;;;;;;;7.97;7.18;;;;;;;;;;12840660;23;20009;-84
2022/07/20 18:45:56;;;;;;;6.93;6.32;;;;;;;;;;12844389;23;20004;-84
2022/07/20 18:50:58;;;;;;;8.30;6.75;;;;;;;;;;12842636;23;20004;-84
2022/07/20 18:55:59;;;;;;;10.50;9.40;;;;;;;;;;12841174;23;20425;-83
2022/07/20 19:01:00;;;;;;;7.55;6.85;;;;;;;;;;12840925;23;20001;-83
2022/07/20 19:06:03;;;;;;;7.82;7.05;;;;;;;;;;12844114;23;20008;-84
2022/07/20 19:11:05;;;;;;;8.88;8.00;;;;;;;;;;12872175;23;20004;-84
2022/07/20 19:16:06;;;;;;;10.13;7.70;;;;;;;;;;12847062;23;20012;-84
2022/07/20 19:21:07;;;;;;;10.75;9.65;;;;;;;;;;12849520;23;20074;-84
